createdAt,value
2022-11-29T00:01:48.274Z,5.80
2022-11-29T00:04:16.191Z,5.95
2022-11-29T00:06:44.015Z,5.50
2022-11-29T00:09:13.973Z,5.32
2022-11-29T00:12:01.275Z,5.65
2022-11-29T00:14:29.674Z,5.35
2022-11-29T00:17:02.681Z,5.32
2022-11-29T00:19:32.581Z,5.07
2022-11-29T00:22:01.383Z,4.78
2022-11-29T00:24:31.794Z,4.70
2022-11-29T00:26:59.876Z,4.80
2022-11-29T00:29:29.130Z,4.82
2022-11-29T00:31:56.994Z,5.10
2022-11-29T00:34:24.949Z,4.53
2022-11-29T00:36:52.775Z,4.57
2022-11-29T00:39:20.663Z,4.95
2022-11-29T00:41:48.740Z,4.57
2022-11-29T00:44:20.065Z,4.63
2022-11-29T00:46:49.570Z,4.88
2022-11-29T00:49:18.010Z,4.65
2022-11-29T00:51:46.573Z,4.63
2022-11-29T00:54:15.829Z,5.22
2022-11-29T00:56:43.607Z,4.40
2022-11-29T00:59:11.515Z,4.85
2022-11-29T01:01:39.645Z,4.07
2022-11-29T01:04:07.732Z,4.25
2022-11-29T01:06:35.467Z,4.55
2022-11-29T01:09:03.837Z,4.03
2022-11-29T01:11:31.653Z,4.80
2022-11-29T01:14:01.817Z,4.35
2022-11-29T01:16:30.838Z,4.68
2022-11-29T01:18:58.567Z,4.45
2022-11-29T01:21:26.605Z,4.40
2022-11-29T01:23:55.000Z,4.88
2022-11-29T01:26:28.568Z,4.95
2022-11-29T01:28:58.009Z,4.38
2022-11-29T01:31:28.601Z,5.05
2022-11-29T01:33:59.681Z,3.95
2022-11-29T01:36:27.954Z,4.63
2022-11-29T01:38:56.188Z,3.72
2022-11-29T01:41:27.417Z,3.75
2022-11-29T01:44:13.922Z,4.40
2022-11-29T01:46:44.768Z,4.38
2022-11-29T01:49:16.295Z,3.92
2022-11-29T01:51:46.704Z,4.47
2022-11-29T01:54:17.983Z,4.45
2022-11-29T01:56:47.243Z,4.10
2022-11-29T01:59:20.962Z,4.03
2022-11-29T02:01:49.020Z,3.85
2022-11-29T02:04:18.836Z,4.63
2022-11-29T02:06:47.164Z,4.00
2022-11-29T02:09:19.971Z,3.65
2022-11-29T02:11:47.812Z,3.70
2022-11-29T02:14:43.771Z,3.33
2022-11-29T02:17:21.546Z,4.70
2022-11-29T02:20:07.383Z,4.00
2022-11-29T02:23:22.752Z,4.10
2022-11-29T02:26:09.534Z,4.22
2022-11-29T02:29:00.002Z,3.50
2022-11-29T02:31:52.838Z,4.25
2022-11-29T02:34:23.417Z,3.90
2022-11-29T02:37:07.165Z,3.97
2022-11-29T02:39:56.953Z,3.88
2022-11-29T02:42:56.050Z,3.70
2022-11-29T02:45:38.858Z,3.53
2022-11-29T02:48:09.709Z,3.70
2022-11-29T02:51:07.013Z,3.67
2022-11-29T02:53:56.951Z,4.32
2022-11-29T02:56:55.543Z,4.15
2022-11-29T03:00:08.044Z,4.10
2022-11-29T03:02:52.064Z,3.95
2022-11-29T03:05:49.549Z,4.15
2022-11-29T03:08:29.345Z,3.88
2022-11-29T03:11:08.556Z,3.80
2022-11-29T03:14:04.554Z,4.50
2022-11-29T03:16:59.182Z,3.90
2022-11-29T03:20:00.330Z,3.97
2022-11-29T03:22:28.222Z,3.47
2022-11-29T03:25:06.053Z,3.78
2022-11-29T03:27:44.092Z,3.97
2022-11-29T03:30:14.405Z,3.88
2022-11-29T03:32:55.433Z,4.10
2022-11-29T03:35:37.951Z,3.83
2022-11-29T03:38:36.391Z,3.65
2022-11-29T03:41:22.479Z,3.22
2022-11-29T03:44:03.253Z,3.75
2022-11-29T03:47:04.971Z,3.40
2022-11-29T03:49:43.802Z,3.42
2022-11-29T03:52:33.299Z,3.90
2022-11-29T03:55:12.168Z,4.20
2022-11-29T03:58:19.959Z,3.88
2022-11-29T04:01:43.412Z,4.50
2022-11-29T04:04:45.571Z,4.05
2022-11-29T04:07:28.712Z,3.17
2022-11-29T04:10:33.818Z,4.00
2022-11-29T04:13:31.217Z,4.53
2022-11-29T04:16:24.769Z,3.90
2022-11-29T04:19:17.126Z,3.88
2022-11-29T04:21:59.592Z,3.58
2022-11-29T04:24:46.380Z,3.85
2022-11-29T04:27:33.334Z,3.58
2022-11-29T04:30:25.136Z,3.72
2022-11-29T04:33:26.768Z,3.60
2022-11-29T04:36:16.802Z,4.15
2022-11-29T04:38:55.035Z,3.72
2022-11-29T04:41:35.782Z,3.35
2022-11-29T04:44:15.375Z,3.80
2022-11-29T04:46:52.282Z,3.88
2022-11-29T04:49:38.407Z,3.90
2022-11-29T04:52:29.058Z,3.60
2022-11-29T04:54:59.893Z,3.85
2022-11-29T04:57:33.498Z,4.20
2022-11-29T05:00:11.663Z,3.47
2022-11-29T05:02:59.639Z,4.03
2022-11-29T05:05:44.467Z,3.67
2022-11-29T05:08:12.311Z,3.67
2022-11-29T05:11:08.235Z,4.18
2022-11-29T05:13:50.747Z,4.00
2022-11-29T05:16:29.703Z,3.83
2022-11-29T05:19:34.830Z,4.28
2022-11-29T05:22:11.459Z,4.75
2022-11-29T05:25:06.051Z,3.97
2022-11-29T05:27:46.469Z,4.30
2022-11-29T05:30:17.016Z,3.72
2022-11-29T05:33:36.903Z,3.97
2022-11-29T05:36:35.642Z,3.80
2022-11-29T05:39:30.368Z,4.68
2022-11-29T05:42:22.858Z,3.90
2022-11-29T05:45:08.412Z,3.90
2022-11-29T05:48:14.471Z,4.50
2022-11-29T05:53:24.372Z,5.38
2022-11-29T05:56:06.082Z,4.78
2022-11-29T05:59:04.425Z,5.10
2022-11-29T06:01:56.473Z,4.90
2022-11-29T06:04:35.746Z,4.65
2022-11-29T06:07:31.899Z,4.43
2022-11-29T06:10:15.305Z,4.70
2022-11-29T06:12:57.481Z,5.10
2022-11-29T06:16:07.436Z,4.55
2022-11-29T06:19:17.448Z,4.07
2022-11-29T06:21:54.395Z,4.03
2022-11-29T06:25:17.282Z,4.50
2022-11-29T06:28:08.560Z,4.40
2022-11-29T06:31:01.353Z,5.30
2022-11-29T06:33:32.212Z,6.15
2022-11-29T06:36:16.401Z,6.38
2022-11-29T06:38:44.417Z,5.63
2022-11-29T06:41:20.266Z,6.55
2022-11-29T06:43:48.635Z,5.97
2022-11-29T06:46:37.784Z,6.60
2022-11-29T06:49:09.741Z,6.38
2022-11-29T06:51:49.885Z,5.70
2022-11-29T06:55:00.055Z,5.90
2022-11-29T06:57:40.423Z,6.18
2022-11-29T07:00:27.807Z,6.35
2022-11-29T07:03:21.542Z,6.07
2022-11-29T07:05:49.575Z,7.13
2022-11-29T07:08:20.274Z,5.57
2022-11-29T07:10:50.388Z,6.05
2022-11-29T07:13:20.171Z,6.03
2022-11-29T07:16:28.684Z,5.90
2022-11-29T07:19:30.659Z,6.07
2022-11-29T07:22:39.691Z,5.47
2022-11-29T07:25:16.908Z,6.13
2022-11-29T07:27:47.661Z,6.45
2022-11-29T07:30:47.364Z,5.78
2022-11-29T07:33:19.880Z,5.57
2022-11-29T07:35:50.770Z,5.57
2022-11-29T07:38:34.241Z,5.70
2022-11-29T07:41:12.775Z,5.32
2022-11-29T07:44:01.912Z,5.80
2022-11-29T07:46:30.399Z,5.93
2022-11-29T07:48:58.585Z,5.53
2022-11-29T07:51:26.582Z,5.05
2022-11-29T07:53:54.312Z,5.72
2022-11-29T07:56:22.376Z,5.78
2022-11-29T07:58:50.333Z,6.20
2022-11-29T08:01:18.389Z,5.53
2022-11-29T08:03:46.737Z,5.45
2022-11-29T08:06:14.705Z,6.30
2022-11-29T08:08:44.315Z,5.40
2022-11-29T08:11:13.014Z,5.20
2022-11-29T08:13:41.042Z,6.57
2022-11-29T08:16:09.056Z,6.15
2022-11-29T08:18:40.096Z,5.13
2022-11-29T08:21:08.957Z,5.65
2022-11-29T08:23:36.946Z,5.45
2022-11-29T08:26:05.132Z,5.43
2022-11-29T08:28:32.863Z,5.40
2022-11-29T08:31:05.336Z,5.68
2022-11-29T08:33:35.232Z,5.15
2022-11-29T08:36:21.772Z,4.95
2022-11-29T08:38:51.018Z,5.57
2022-11-29T08:41:21.745Z,5.55
2022-11-29T08:43:49.417Z,5.18
2022-11-29T08:46:18.909Z,4.95
2022-11-29T08:48:47.800Z,5.78
2022-11-29T08:51:16.081Z,5.28
2022-11-29T08:53:44.997Z,5.22
2022-11-29T08:57:04.442Z,5.43
2022-11-29T08:59:03.337Z,5.88
2022-11-29T09:01:31.645Z,5.82
2022-11-29T09:03:59.772Z,4.78
2022-11-29T09:06:32.932Z,5.07
2022-11-29T09:09:01.698Z,6.57
2022-11-29T09:11:30.646Z,4.85
2022-11-29T09:14:00.885Z,5.60
2022-11-29T09:16:30.763Z,6.10
2022-11-29T09:18:58.647Z,5.50
2022-11-29T09:21:29.262Z,5.75
2022-11-29T09:24:00.069Z,5.70
2022-11-29T09:26:30.401Z,5.60
2022-11-29T09:29:01.460Z,5.70
2022-11-29T09:31:30.490Z,5.50
2022-11-29T09:33:58.542Z,5.90
2022-11-29T09:36:28.839Z,5.22
2022-11-29T09:38:58.400Z,6.28
2022-11-29T09:41:34.975Z,6.00
2022-11-29T09:44:21.645Z,5.47
2022-11-29T09:47:14.139Z,5.65
2022-11-29T09:50:04.177Z,6.03
2022-11-29T09:53:12.329Z,5.78
2022-11-29T09:55:43.206Z,6.30
2022-11-29T09:58:16.019Z,5.57
2022-11-29T10:00:49.822Z,5.10
2022-11-29T10:03:25.683Z,5.32
2022-11-29T10:06:03.199Z,5.63
2022-11-29T10:08:37.213Z,5.57
2022-11-29T10:11:16.121Z,5.53
2022-11-29T10:13:51.634Z,6.15
2022-11-29T10:16:43.662Z,5.80
2022-11-29T10:19:22.430Z,6.43
2022-11-29T10:22:02.237Z,6.47
2022-11-29T10:24:30.538Z,5.78
2022-11-29T10:26:58.670Z,6.00
2022-11-29T10:29:26.918Z,6.15
2022-11-29T10:31:56.985Z,6.07
2022-11-29T10:34:26.205Z,5.55
2022-11-29T10:37:00.009Z,6.60
2022-11-29T10:39:59.931Z,6.20
2022-11-29T10:42:48.414Z,5.50
2022-11-29T10:45:23.982Z,6.72
2022-11-29T10:48:04.392Z,6.45
2022-11-29T10:50:35.281Z,6.05
2022-11-29T10:53:08.694Z,6.63
2022-11-29T10:55:54.060Z,6.43
2022-11-29T10:58:28.443Z,6.70
2022-11-29T11:01:07.816Z,6.85
2022-11-29T11:03:41.606Z,6.53
2022-11-29T11:06:13.297Z,6.80
2022-11-29T11:08:54.264Z,6.70
2022-11-29T11:11:34.857Z,7.07
2022-11-29T11:14:23.607Z,6.65
2022-11-29T11:16:52.051Z,6.97
2022-11-29T11:19:31.771Z,7.15
2022-11-29T11:22:01.739Z,7.68
2022-11-29T11:24:32.942Z,7.00
2022-11-29T11:27:01.315Z,6.93
2022-11-29T11:29:44.054Z,7.40
2022-11-29T11:32:20.123Z,7.00
2022-11-29T11:35:02.605Z,7.05
2022-11-29T11:37:32.555Z,7.25
2022-11-29T11:40:29.512Z,7.50
2022-11-29T11:42:59.516Z,7.13
2022-11-29T11:45:39.055Z,7.10
2022-11-29T11:48:16.936Z,7.15
2022-11-29T11:50:52.613Z,7.05
2022-11-29T11:53:21.896Z,7.72
2022-11-29T11:56:02.635Z,8.20
2022-11-29T11:58:44.467Z,8.48
2022-11-29T12:01:25.709Z,8.98
2022-11-29T12:04:19.562Z,9.02
2022-11-29T12:07:03.171Z,8.02
2022-11-29T12:09:52.960Z,8.82
2022-11-29T12:12:30.945Z,8.68
2022-11-29T12:15:20.578Z,8.45
2022-11-29T12:17:56.996Z,9.07
2022-11-29T12:20:38.026Z,8.45
2022-11-29T12:23:11.825Z,8.23
2022-11-29T12:26:34.484Z,8.82
2022-11-29T12:29:03.272Z,9.45
2022-11-29T12:31:44.688Z,8.93
2022-11-29T12:34:42.987Z,7.82
2022-11-29T12:37:33.035Z,9.10
2022-11-29T12:40:32.775Z,8.85
2022-11-29T12:43:04.004Z,8.10
2022-11-29T12:45:31.804Z,8.88
2022-11-29T12:48:27.813Z,8.68
2022-11-29T12:51:53.409Z,9.32
2022-11-29T12:54:29.876Z,9.52
2022-11-29T12:57:29.704Z,8.88
2022-11-29T13:00:13.468Z,10.88
2022-11-29T13:03:05.976Z,14.20
2022-11-29T13:06:03.248Z,14.30
2022-11-29T13:08:37.103Z,16.98
2022-11-29T13:11:31.898Z,18.42
2022-11-29T13:14:42.569Z,18.45
2022-11-29T13:17:25.604Z,19.00
2022-11-29T13:19:58.933Z,19.45
2022-11-29T13:22:36.295Z,20.00
2022-11-29T13:25:13.451Z,19.90
2022-11-29T13:27:59.506Z,18.90
2022-11-29T13:30:27.405Z,19.83
2022-11-29T13:33:06.357Z,20.63
2022-11-29T13:36:17.245Z,20.55
2022-11-29T13:39:09.579Z,19.45
2022-11-29T13:41:46.228Z,17.77
2022-11-29T13:44:32.342Z,18.35
2022-11-29T13:47:11.043Z,17.85
2022-11-29T13:50:32.711Z,18.38
2022-11-29T13:53:19.131Z,17.38
2022-11-29T13:56:00.163Z,16.90
2022-11-29T13:58:36.867Z,16.90
2022-11-29T14:01:12.409Z,19.35
2022-11-29T14:03:48.317Z,17.48
2022-11-29T14:06:21.336Z,16.27
2022-11-29T14:09:19.568Z,17.10
2022-11-29T14:11:53.070Z,15.88
2022-11-29T14:14:47.233Z,15.07
2022-11-29T14:17:36.692Z,16.35
2022-11-29T14:20:22.964Z,15.15
2022-11-29T14:23:05.930Z,14.55
2022-11-29T14:25:53.317Z,14.95
2022-11-29T14:28:29.745Z,15.52
2022-11-29T14:31:01.902Z,14.93
2022-11-29T14:33:39.057Z,14.65
2022-11-29T14:36:17.942Z,13.85
2022-11-29T14:38:57.753Z,14.32
2022-11-29T14:41:37.362Z,14.93
2022-11-29T14:44:14.335Z,13.80
2022-11-29T14:46:42.492Z,13.55
2022-11-29T14:49:22.273Z,12.65
2022-11-29T14:52:14.950Z,13.95
2022-11-29T14:55:00.418Z,13.02
2022-11-29T15:00:49.755Z,13.00
2022-11-29T15:03:19.959Z,11.77
2022-11-29T15:05:56.993Z,12.43
2022-11-29T15:08:35.990Z,11.77
2022-11-29T15:11:30.925Z,12.18
2022-11-29T15:14:09.917Z,11.07
2022-11-29T15:17:06.862Z,11.40
2022-11-29T15:19:54.081Z,11.77
2022-11-29T15:22:30.420Z,11.25
2022-11-29T15:25:02.807Z,11.80
2022-11-29T15:27:30.710Z,12.02
2022-11-29T15:30:00.021Z,11.70
2022-11-29T15:32:31.138Z,10.65
2022-11-29T15:34:59.619Z,11.93
2022-11-29T15:37:37.732Z,10.65
2022-11-29T15:40:16.466Z,11.60
2022-11-29T15:43:00.471Z,10.25
2022-11-29T15:45:35.374Z,12.05
2022-11-29T15:48:13.945Z,9.80
2022-11-29T15:50:46.933Z,10.32
2022-11-29T15:53:22.390Z,10.70
2022-11-29T15:55:52.316Z,11.05
2022-11-29T15:58:20.913Z,9.50
2022-11-29T16:00:50.004Z,10.68
2022-11-29T16:03:30.300Z,10.18
2022-11-29T16:06:15.535Z,9.88
2022-11-29T16:11:17.859Z,10.55
2022-11-29T16:14:12.367Z,11.63
2022-11-29T16:16:41.624Z,9.65
2022-11-29T16:19:33.052Z,9.38
2022-11-29T16:22:09.991Z,10.88
2022-11-29T16:24:40.059Z,9.88
2022-11-29T16:27:08.832Z,9.48
2022-11-29T16:29:45.268Z,10.75
2022-11-29T16:32:30.424Z,10.90
2022-11-29T16:37:42.485Z,9.80
2022-11-29T16:40:36.534Z,9.63
2022-11-29T16:43:04.456Z,10.70
2022-11-29T16:45:35.060Z,9.50
2022-11-29T16:48:03.416Z,9.90
2022-11-29T16:50:35.103Z,10.13
2022-11-29T16:53:37.886Z,10.00
2022-11-29T16:56:08.714Z,8.77
2022-11-29T16:58:41.701Z,9.65
2022-11-29T17:01:26.815Z,9.30
2022-11-29T17:03:56.365Z,9.18
2022-11-29T17:06:25.062Z,9.70
2022-11-29T17:08:54.759Z,8.45
2022-11-29T17:11:23.196Z,9.32
2022-11-29T17:13:51.677Z,9.00
2022-11-29T17:16:21.814Z,8.75
2022-11-29T17:18:49.873Z,8.65
2022-11-29T17:21:26.239Z,8.57
2022-11-29T17:23:54.563Z,8.98
2022-11-29T17:26:23.285Z,9.38
2022-11-29T17:28:52.059Z,9.68
2022-11-29T17:31:24.865Z,8.68
2022-11-29T17:36:22.906Z,9.15
2022-11-29T17:38:50.840Z,8.90
2022-11-29T17:41:22.618Z,8.45
2022-11-29T17:43:51.855Z,8.52
2022-11-29T17:46:28.063Z,9.43
2022-11-29T17:48:56.561Z,8.65
2022-11-29T17:54:13.363Z,9.15
2022-11-29T17:56:41.162Z,12.35
2022-11-29T17:59:09.157Z,14.68
2022-11-29T18:01:37.477Z,21.27
2022-11-29T18:04:06.500Z,23.38
2022-11-29T18:06:39.661Z,27.08
2022-11-29T18:09:09.657Z,27.63
2022-11-29T18:11:48.605Z,28.20
2022-11-29T18:14:24.086Z,26.30
2022-11-29T18:16:52.535Z,28.10
2022-11-29T18:19:22.243Z,29.13
2022-11-29T18:21:50.603Z,30.90
2022-11-29T18:24:18.872Z,30.75
2022-11-29T18:26:46.882Z,30.38
2022-11-29T18:29:14.589Z,29.77
2022-11-29T18:31:44.927Z,31.45
2022-11-29T18:34:14.265Z,28.80
2022-11-29T18:36:44.453Z,29.80
2022-11-29T18:39:17.327Z,29.20
2022-11-29T18:41:51.263Z,33.15
2022-11-29T18:44:21.762Z,30.77
2022-11-29T18:46:49.808Z,31.60
2022-11-29T18:49:18.768Z,29.40
2022-11-29T18:51:47.777Z,27.77
2022-11-29T18:54:17.177Z,27.92
2022-11-29T18:56:45.793Z,28.50
2022-11-29T18:59:18.446Z,25.73
2022-11-29T19:01:48.010Z,24.77
2022-11-29T19:04:20.916Z,25.27
2022-11-29T19:06:49.553Z,25.77
2022-11-29T19:09:21.491Z,24.35
2022-11-29T19:11:50.207Z,25.02
2022-11-29T19:14:19.280Z,23.83
2022-11-29T19:16:48.632Z,22.15
2022-11-29T19:19:18.830Z,22.70
2022-11-29T19:21:46.701Z,21.65
2022-11-29T19:24:16.011Z,21.42
2022-11-29T19:26:45.298Z,21.55
2022-11-29T19:29:14.014Z,19.88
2022-11-29T19:31:42.682Z,20.77
2022-11-29T19:34:10.793Z,20.05
2022-11-29T19:36:43.600Z,20.80
2022-11-29T19:39:16.452Z,18.52
2022-11-29T19:41:47.117Z,20.08
2022-11-29T19:44:15.252Z,17.75
2022-11-29T19:46:47.163Z,18.45
2022-11-29T19:49:15.282Z,17.05
2022-11-29T19:51:44.000Z,16.20
2022-11-29T19:54:12.355Z,16.27
2022-11-29T19:56:40.781Z,16.80
2022-11-29T19:59:09.166Z,16.25
2022-11-29T20:01:41.327Z,15.60
2022-11-29T20:04:10.895Z,16.70
2022-11-29T20:06:39.668Z,16.08
2022-11-29T20:09:07.954Z,14.73
2022-11-29T20:11:36.152Z,14.45
2022-11-29T20:14:05.873Z,15.32
2022-11-29T20:16:34.250Z,15.55
2022-11-29T20:19:02.340Z,14.38
2022-11-29T20:21:34.226Z,13.65
2022-11-29T20:24:04.977Z,15.35
2022-11-29T20:26:35.282Z,14.13
2022-11-29T20:29:04.264Z,13.13
2022-11-29T20:31:33.876Z,13.50
2022-11-29T20:34:02.429Z,12.95
2022-11-29T20:36:53.265Z,11.80
2022-11-29T20:39:51.979Z,12.05
2022-11-29T20:42:30.480Z,11.90
2022-11-29T20:45:08.804Z,11.80
2022-11-29T20:47:53.908Z,11.73
2022-11-29T20:50:27.526Z,11.90
2022-11-29T20:53:38.694Z,11.57
2022-11-29T20:56:08.660Z,12.48
2022-11-29T20:58:36.771Z,10.73
2022-11-29T21:01:05.314Z,12.50
2022-11-29T21:03:33.159Z,9.57
2022-11-29T21:06:04.145Z,10.70
2022-11-29T21:08:32.888Z,9.73
2022-11-29T21:11:05.952Z,10.65
2022-11-29T21:13:34.265Z,9.55
2022-11-29T21:16:02.381Z,9.70
2022-11-29T21:18:31.759Z,8.75
2022-11-29T21:21:15.708Z,9.82
2022-11-29T21:23:53.787Z,10.02
2022-11-29T21:26:38.568Z,9.02
2022-11-29T21:29:16.542Z,9.25
2022-11-29T21:31:45.497Z,9.80
2022-11-29T21:34:13.666Z,9.13
2022-11-29T21:36:44.191Z,9.52
2022-11-29T21:39:17.293Z,9.25
2022-11-29T21:41:45.422Z,9.05
2022-11-29T21:44:13.380Z,10.02
2022-11-29T21:46:41.183Z,9.02
2022-11-29T21:49:09.113Z,10.15
2022-11-29T21:51:37.180Z,10.52
2022-11-29T21:54:07.159Z,9.90
2022-11-29T21:56:38.110Z,10.95
2022-11-29T21:59:06.097Z,11.00
2022-11-29T22:01:34.182Z,12.18
2022-11-29T22:04:02.056Z,11.02
2022-11-29T22:06:30.410Z,10.48
2022-11-29T22:09:00.138Z,10.82
2022-11-29T22:11:31.303Z,10.10
2022-11-29T22:14:15.936Z,10.02
2022-11-29T22:17:04.058Z,10.67
2022-11-29T22:19:36.595Z,10.70
2022-11-29T22:22:06.809Z,10.48
2022-11-29T22:24:36.801Z,8.68
2022-11-29T22:27:04.864Z,8.77
2022-11-29T22:29:32.767Z,9.85
2022-11-29T22:32:01.429Z,9.63
2022-11-29T22:34:29.688Z,8.93
2022-11-29T22:36:59.889Z,8.98
2022-11-29T22:39:27.759Z,8.45
2022-11-29T22:41:55.614Z,8.52
2022-11-29T22:44:24.613Z,8.40
2022-11-29T22:46:52.427Z,8.18
2022-11-29T22:49:20.464Z,8.50
2022-11-29T22:51:48.753Z,8.75
2022-11-29T22:54:17.520Z,7.82
2022-11-29T22:56:46.694Z,7.90
2022-11-29T22:59:14.696Z,7.38
2022-11-29T23:01:43.122Z,8.90
2022-11-29T23:04:12.343Z,8.00
2022-11-29T23:06:43.094Z,8.63
2022-11-29T23:09:16.716Z,7.97
2022-11-29T23:11:45.936Z,8.30
2022-11-29T23:14:14.219Z,8.23
2022-11-29T23:16:42.314Z,8.15
2022-11-29T23:19:10.379Z,7.20
2022-11-29T23:21:41.661Z,7.45
2022-11-29T23:24:09.637Z,6.97
2022-11-29T23:26:40.401Z,7.15
2022-11-29T23:29:10.556Z,6.80
2022-11-29T23:31:38.545Z,6.40
2022-11-29T23:34:06.556Z,6.82
2022-11-29T23:36:36.988Z,6.55
2022-11-29T23:39:06.855Z,7.10
2022-11-29T23:41:38.468Z,8.35
2022-11-29T23:44:07.061Z,6.85
2022-11-29T23:46:36.213Z,7.40
2022-11-29T23:49:04.347Z,7.10
2022-11-29T23:51:32.324Z,6.82
2022-11-29T23:54:00.161Z,6.53
2022-11-29T23:56:28.086Z,6.82
2022-11-29T23:58:55.963Z,6.60
